createdAt,value
2018-12-25T00:00:18.800Z,5.97
2018-12-25T00:02:51.959Z,4.90
2018-12-25T00:05:23.145Z,6.07
2018-12-25T00:07:54.476Z,6.73
2018-12-25T00:10:25.862Z,6.63
2018-12-25T00:12:56.915Z,6.57
2018-12-25T00:15:28.455Z,6.37
2018-12-25T00:17:59.507Z,6.10
2018-12-25T00:20:30.378Z,7.17
2018-12-25T00:23:01.627Z,6.47
2018-12-25T00:25:32.712Z,8.43
2018-12-25T00:28:04.460Z,7.40
2018-12-25T00:30:35.498Z,7.93
2018-12-25T00:33:06.852Z,6.53
2018-12-25T00:35:38.693Z,9.10
2018-12-25T00:38:10.053Z,7.53
2018-12-25T00:40:41.231Z,7.03
2018-12-25T00:43:12.563Z,6.90
2018-12-25T00:45:44.130Z,7.30
2018-12-25T00:48:15.151Z,5.57
2018-12-25T00:50:46.645Z,6.30
2018-12-25T00:53:17.855Z,6.03
2018-12-25T00:55:49.395Z,8.27
2018-12-25T00:58:21.157Z,7.20
2018-12-25T01:00:52.309Z,5.97
2018-12-25T01:03:23.755Z,6.47
2018-12-25T01:05:54.918Z,6.47
2018-12-25T01:08:26.322Z,5.13
2018-12-25T01:10:58.319Z,5.40
2018-12-25T01:13:32.220Z,7.13
2018-12-25T01:16:03.067Z,5.43
2018-12-25T01:18:33.860Z,8.53
2018-12-25T01:21:04.987Z,6.30
2018-12-25T01:23:35.985Z,5.40
2018-12-25T01:26:07.057Z,4.83
2018-12-25T01:28:37.880Z,4.90
2018-12-25T01:31:09.744Z,6.03
2018-12-25T01:33:40.761Z,5.33
2018-12-25T01:36:12.485Z,5.47
2018-12-25T01:38:43.543Z,5.57
2018-12-25T01:41:14.764Z,6.60
2018-12-25T01:43:45.817Z,5.40
2018-12-25T01:46:16.800Z,4.70
2018-12-25T01:48:47.543Z,5.43
2018-12-25T01:51:18.378Z,4.43
2018-12-25T01:53:50.078Z,5.07
2018-12-25T01:56:21.003Z,4.67
2018-12-25T01:58:51.999Z,5.40
2018-12-25T02:01:23.627Z,5.83
2018-12-25T02:03:55.012Z,5.67
2018-12-25T02:06:26.198Z,8.47
2018-12-25T02:08:57.190Z,5.43
2018-12-25T02:11:28.236Z,5.40
2018-12-25T02:13:59.237Z,5.13
2018-12-25T02:16:30.325Z,4.80
2018-12-25T02:19:01.352Z,4.07
2018-12-25T02:21:32.284Z,4.13
2018-12-25T02:24:03.343Z,4.87
2018-12-25T02:26:34.994Z,4.80
2018-12-25T02:29:06.369Z,3.53
2018-12-25T02:31:38.159Z,4.83
2018-12-25T02:34:11.019Z,4.10
2018-12-25T02:36:42.102Z,5.20
2018-12-25T02:39:13.180Z,5.10
2018-12-25T02:41:44.525Z,7.67
2018-12-25T02:44:15.882Z,4.30
2018-12-25T02:46:46.823Z,4.47
2018-12-25T02:49:18.414Z,5.47
2018-12-25T02:51:49.554Z,5.33
2018-12-25T02:54:20.764Z,6.13
2018-12-25T02:56:52.122Z,4.67
2018-12-25T02:59:23.956Z,4.73
2018-12-25T03:01:55.071Z,4.13
2018-12-25T03:04:26.476Z,6.23
2018-12-25T03:06:57.718Z,5.63
2018-12-25T03:09:29.158Z,5.23
2018-12-25T03:12:00.208Z,4.90
2018-12-25T03:14:31.368Z,4.37
2018-12-25T03:17:02.331Z,6.13
2018-12-25T03:19:33.586Z,4.10
2018-12-25T03:22:04.496Z,4.60
2018-12-25T03:24:35.574Z,6.47
2018-12-25T03:27:07.075Z,4.63
2018-12-25T03:29:37.828Z,4.83
2018-12-25T03:32:08.712Z,4.40
2018-12-25T03:34:40.108Z,5.33
2018-12-25T03:37:11.646Z,4.93
2018-12-25T03:39:42.538Z,4.97
2018-12-25T03:42:14.338Z,6.93
2018-12-25T03:44:45.402Z,6.33
2018-12-25T03:47:16.391Z,5.60
2018-12-25T03:49:47.439Z,6.90
2018-12-25T03:52:19.013Z,5.53
2018-12-25T03:54:50.098Z,4.00
2018-12-25T03:57:21.533Z,5.50
2018-12-25T03:59:52.809Z,4.77
2018-12-25T04:02:23.623Z,5.10
2018-12-25T04:04:54.917Z,7.90
2018-12-25T04:07:26.247Z,5.40
2018-12-25T04:09:57.456Z,6.53
2018-12-25T04:12:28.888Z,7.40
2018-12-25T04:14:59.623Z,5.40
2018-12-25T04:17:31.110Z,5.80
2018-12-25T04:20:02.404Z,4.50
2018-12-25T04:22:33.772Z,5.20
2018-12-25T04:25:05.188Z,7.20
2018-12-25T04:27:36.700Z,5.57
2018-12-25T04:30:07.517Z,8.20
2018-12-25T04:32:38.445Z,6.00
2018-12-25T04:35:10.136Z,6.20
2018-12-25T04:37:41.447Z,7.17
2018-12-25T04:40:12.255Z,7.50
2018-12-25T04:42:43.510Z,8.30
2018-12-25T04:45:14.478Z,7.03
2018-12-25T04:47:45.476Z,4.50
2018-12-25T04:50:16.724Z,6.33
2018-12-25T04:52:47.744Z,5.60
2018-12-25T04:55:18.918Z,6.60
2018-12-25T04:57:51.763Z,7.80
2018-12-25T05:00:22.920Z,9.33
2018-12-25T05:02:53.836Z,8.30
2018-12-25T05:05:24.894Z,6.27
2018-12-25T05:07:55.651Z,7.83
2018-12-25T05:10:26.623Z,7.00
2018-12-25T05:12:57.607Z,7.47
2018-12-25T05:15:28.843Z,9.47
2018-12-25T05:17:59.605Z,8.13
2018-12-25T05:20:37.825Z,6.80
2018-12-25T05:23:03.390Z,6.67
2018-12-25T05:25:34.383Z,6.87
2018-12-25T05:28:05.690Z,8.47
2018-12-25T05:30:36.735Z,12.13
2018-12-25T05:33:07.989Z,6.37
2018-12-25T05:35:38.804Z,6.37
2018-12-25T05:38:09.607Z,7.33
2018-12-25T05:40:40.578Z,9.27
2018-12-25T05:43:11.918Z,6.63
2018-12-25T05:45:43.201Z,6.43
2018-12-25T05:48:14.430Z,7.00
2018-12-25T05:50:46.751Z,7.57
2018-12-25T05:53:18.171Z,7.40
2018-12-25T05:55:49.804Z,6.63
2018-12-25T05:58:20.785Z,7.40
2018-12-25T06:00:51.889Z,7.77
2018-12-25T06:03:23.081Z,10.60
2018-12-25T06:05:54.478Z,8.03
2018-12-25T06:08:25.465Z,7.77
2018-12-25T06:10:56.525Z,9.17
2018-12-25T06:13:27.790Z,12.40
2018-12-25T06:15:59.305Z,12.40
2018-12-25T06:18:31.575Z,13.60
2018-12-25T06:21:02.568Z,9.87
2018-12-25T06:23:33.569Z,9.40
2018-12-25T06:26:04.304Z,9.80
2018-12-25T06:28:35.316Z,9.37
2018-12-25T06:31:06.626Z,9.90
2018-12-25T06:33:37.837Z,8.20
2018-12-25T06:36:09.263Z,7.80
2018-12-25T06:38:40.045Z,7.73
2018-12-25T06:41:11.078Z,8.07
2018-12-25T06:43:42.088Z,8.20
2018-12-25T06:46:13.140Z,7.97
2018-12-25T06:48:44.757Z,9.73
2018-12-25T06:51:15.743Z,10.40
2018-12-25T06:53:46.993Z,8.07
2018-12-25T06:56:18.323Z,10.13
2018-12-25T06:58:49.095Z,10.90
2018-12-25T07:01:20.172Z,9.83
2018-12-25T07:03:51.755Z,12.23
2018-12-25T07:06:22.896Z,11.00
2018-12-25T07:08:53.735Z,11.40
2018-12-25T07:11:24.982Z,10.77
2018-12-25T07:13:55.966Z,10.10
2018-12-25T07:16:27.258Z,12.20
2018-12-25T07:18:58.271Z,10.50
2018-12-25T07:21:29.599Z,10.20
2018-12-25T07:24:00.850Z,9.63
2018-12-25T07:26:31.889Z,8.17
2018-12-25T07:29:02.962Z,10.27
2018-12-25T07:31:34.298Z,10.27
2018-12-25T07:34:05.095Z,9.83
2018-12-25T07:36:37.103Z,10.27
2018-12-25T07:39:07.986Z,10.67
2018-12-25T07:41:39.431Z,10.30
2018-12-25T07:44:10.537Z,8.80
2018-12-25T07:46:41.730Z,10.60
2018-12-25T07:49:13.006Z,10.60
2018-12-25T07:51:43.823Z,10.57
2018-12-25T07:54:14.592Z,13.57
2018-12-25T07:56:45.701Z,16.10
2018-12-25T07:59:16.981Z,15.20
2018-12-25T08:01:48.332Z,20.77
2018-12-25T08:04:19.353Z,11.73
2018-12-25T08:06:50.586Z,13.90
2018-12-25T08:09:21.654Z,12.83
2018-12-25T08:11:53.716Z,13.53
2018-12-25T08:14:24.853Z,14.23
2018-12-25T08:16:55.846Z,15.43
2018-12-25T08:19:27.010Z,12.87
2018-12-25T08:21:58.235Z,10.50
2018-12-25T08:24:30.063Z,15.50
2018-12-25T08:27:01.482Z,11.80
2018-12-25T08:29:32.912Z,11.97
2018-12-25T08:32:03.755Z,14.67
2018-12-25T08:34:35.078Z,13.30
2018-12-25T08:37:06.115Z,10.90
2018-12-25T08:39:37.323Z,11.47
2018-12-25T08:42:08.290Z,11.23
2018-12-25T08:44:39.330Z,10.83
2018-12-25T08:47:11.609Z,10.83
2018-12-25T08:49:42.961Z,11.30
2018-12-25T08:52:14.479Z,11.57
2018-12-25T08:54:45.471Z,12.97
2018-12-25T08:57:17.160Z,10.60
2018-12-25T08:59:48.170Z,9.47
2018-12-25T09:02:19.242Z,10.07
2018-12-25T09:04:50.891Z,12.33
2018-12-25T09:07:22.039Z,13.80
2018-12-25T09:09:53.790Z,11.73
2018-12-25T09:12:24.943Z,11.77
2018-12-25T09:14:56.591Z,14.13
2018-12-25T09:17:27.463Z,11.20
2018-12-25T09:19:58.286Z,11.17
2018-12-25T09:22:29.411Z,13.53
2018-12-25T09:25:00.759Z,16.90
2018-12-25T09:27:32.272Z,19.53
2018-12-25T09:30:03.379Z,18.17
2018-12-25T09:32:34.627Z,14.90
2018-12-25T09:35:05.711Z,16.37
2018-12-25T09:37:36.460Z,16.77
2018-12-25T09:40:07.892Z,21.07
2018-12-25T09:42:39.298Z,20.03
2018-12-25T09:45:10.075Z,28.17
2018-12-25T09:47:41.222Z,53.57
2018-12-25T09:50:12.295Z,57.73
2018-12-25T09:52:43.600Z,65.40
2018-12-25T09:55:14.446Z,79.77
2018-12-25T09:57:45.429Z,43.87
2018-12-25T10:00:17.497Z,26.13
2018-12-25T10:02:48.766Z,22.47
2018-12-25T10:05:19.794Z,20.97
2018-12-25T10:07:50.905Z,20.47
2018-12-25T10:10:22.169Z,22.80
2018-12-25T10:12:53.191Z,21.77
2018-12-25T10:15:23.966Z,18.97
2018-12-25T10:17:54.990Z,21.47
2018-12-25T10:20:28.200Z,29.47
2018-12-25T10:22:59.336Z,27.77
2018-12-25T10:25:30.411Z,31.17
2018-12-25T10:28:01.393Z,26.50
2018-12-25T10:30:32.227Z,21.70
2018-12-25T10:33:03.450Z,18.93
2018-12-25T10:35:34.730Z,15.27
2018-12-25T10:38:05.470Z,15.37
2018-12-25T10:40:36.472Z,45.03
2018-12-25T10:43:07.939Z,37.70
2018-12-25T10:45:40.031Z,33.80
2018-12-25T10:48:11.332Z,149.20
2018-12-25T10:50:43.114Z,50.60
2018-12-25T10:53:14.089Z,21.23
2018-12-25T10:55:45.347Z,21.80
2018-12-25T10:58:16.638Z,17.10
2018-12-25T11:00:51.050Z,19.57
2018-12-25T11:03:22.696Z,13.57
2018-12-25T11:05:54.039Z,14.60
2018-12-25T11:08:26.282Z,13.43
2018-12-25T11:10:58.155Z,11.87
2018-12-25T11:13:29.126Z,13.17
2018-12-25T11:16:00.282Z,11.90
2018-12-25T11:18:31.106Z,12.77
2018-12-25T11:21:02.783Z,16.00
2018-12-25T11:23:34.281Z,11.80
2018-12-25T11:26:05.068Z,14.03
2018-12-25T11:28:36.189Z,13.30
2018-12-25T11:31:08.360Z,13.10
2018-12-25T11:33:39.294Z,13.00
2018-12-25T11:36:10.624Z,13.03
2018-12-25T11:38:42.063Z,14.27
2018-12-25T11:41:13.423Z,13.70
2018-12-25T11:43:44.466Z,12.40
2018-12-25T11:46:15.241Z,11.57
2018-12-25T11:48:46.263Z,11.97
2018-12-25T11:51:17.013Z,11.93
2018-12-25T11:53:47.937Z,11.50
2018-12-25T11:56:19.615Z,14.27
2018-12-25T11:58:51.228Z,14.97
2018-12-25T12:01:22.882Z,13.23
2018-12-25T12:03:54.039Z,14.20
2018-12-25T12:06:24.890Z,13.67
2018-12-25T12:08:55.900Z,12.37
2018-12-25T12:11:27.183Z,13.40
2018-12-25T12:13:58.409Z,11.50
2018-12-25T12:16:30.178Z,12.50
2018-12-25T12:19:01.118Z,10.83
2018-12-25T12:21:32.962Z,14.80
2018-12-25T12:24:03.794Z,14.87
2018-12-25T12:26:35.045Z,10.73
2018-12-25T12:29:06.389Z,11.67
2018-12-25T12:31:37.240Z,9.90
2018-12-25T12:34:08.030Z,10.57
2018-12-25T12:36:39.226Z,9.83
2018-12-25T12:39:10.363Z,10.77
2018-12-25T12:41:41.454Z,10.33
2018-12-25T12:44:12.765Z,13.60
2018-12-25T12:46:44.118Z,13.00
2018-12-25T12:49:15.127Z,12.97
2018-12-25T12:51:46.132Z,10.67
2018-12-25T12:54:18.056Z,8.70
2018-12-25T12:56:49.228Z,8.60
2018-12-25T12:59:20.287Z,7.43
2018-12-25T13:01:51.709Z,8.43
2018-12-25T13:04:23.239Z,12.97
2018-12-25T13:06:54.572Z,12.63
2018-12-25T13:09:25.836Z,13.00
2018-12-25T13:11:56.861Z,13.77
2018-12-25T13:14:28.172Z,13.50
2018-12-25T13:16:59.243Z,15.20
2018-12-25T13:19:30.390Z,17.53
2018-12-25T13:22:01.703Z,14.83
2018-12-25T13:24:32.463Z,17.93
2018-12-25T13:27:03.612Z,15.13
2018-12-25T13:29:34.679Z,17.53
2018-12-25T13:32:05.818Z,16.37
2018-12-25T13:34:37.576Z,18.20
2018-12-25T13:37:08.360Z,20.83
2018-12-25T13:39:39.622Z,17.93
2018-12-25T13:42:10.627Z,16.80
2018-12-25T13:44:41.959Z,16.23
2018-12-25T13:47:12.973Z,18.83
2018-12-25T13:49:44.292Z,18.10
2018-12-25T13:52:15.405Z,14.70
2018-12-25T13:54:46.752Z,19.17
2018-12-25T13:57:17.834Z,15.13
2018-12-25T13:59:49.124Z,17.20
2018-12-25T14:02:19.906Z,17.17
2018-12-25T14:04:50.910Z,19.73
2018-12-25T14:07:22.155Z,17.87
2018-12-25T14:09:53.231Z,16.23
2018-12-25T14:12:24.590Z,17.63
2018-12-25T14:14:55.339Z,17.33
2018-12-25T14:17:26.637Z,23.17
2018-12-25T14:19:57.482Z,25.43
2018-12-25T14:22:28.599Z,24.73
2018-12-25T14:24:59.890Z,24.90
2018-12-25T14:27:30.714Z,28.80
2018-12-25T14:30:02.086Z,21.30
2018-12-25T14:32:33.312Z,21.27
2018-12-25T14:35:04.644Z,23.57
2018-12-25T14:37:35.437Z,23.20
2018-12-25T14:40:06.723Z,16.33
2018-12-25T14:42:38.270Z,17.80
2018-12-25T14:45:09.112Z,16.17
2018-12-25T14:47:40.356Z,25.23
2018-12-25T14:50:11.167Z,20.80
2018-12-25T14:52:42.212Z,19.90
2018-12-25T14:55:13.276Z,17.93
2018-12-25T14:57:44.259Z,15.33
2018-12-25T15:00:15.250Z,18.10
2018-12-25T15:02:46.067Z,19.37
2018-12-25T15:05:17.193Z,16.47
2018-12-25T15:07:48.272Z,17.17
2018-12-25T15:10:19.534Z,70.63
2018-12-25T15:12:50.595Z,30.73
2018-12-25T15:15:21.657Z,28.77
2018-12-25T15:17:52.702Z,32.63
2018-12-25T15:20:23.771Z,27.70
2018-12-25T15:22:54.755Z,25.03
2018-12-25T15:25:25.783Z,36.20
2018-12-25T15:27:57.036Z,26.80
2018-12-25T15:30:27.937Z,20.33
2018-12-25T15:32:59.642Z,12.00
2018-12-25T15:35:30.474Z,12.03
2018-12-25T15:38:02.128Z,13.30
2018-12-25T15:40:33.136Z,12.03
2018-12-25T15:43:03.894Z,13.77
2018-12-25T15:45:34.918Z,8.83
2018-12-25T15:48:05.956Z,12.00
2018-12-25T15:50:37.034Z,9.20
2018-12-25T15:56:15.437Z,8.93
2018-12-25T15:59:12.184Z,8.70
2018-12-25T16:01:42.926Z,8.47
2018-12-25T16:04:13.749Z,7.83
2018-12-25T16:06:45.057Z,7.10
2018-12-25T16:09:16.309Z,6.50
2018-12-25T16:11:47.511Z,9.00
2018-12-25T16:14:18.826Z,7.23
2018-12-25T16:16:49.912Z,76.03
2018-12-25T16:19:20.902Z,25.33
2018-12-25T16:21:51.978Z,9.53
2018-12-25T16:24:27.481Z,9.53
2018-12-25T16:26:55.499Z,9.30
2018-12-25T16:29:26.977Z,10.37
2018-12-25T16:31:58.223Z,8.83
2018-12-25T16:34:28.989Z,10.77
2018-12-25T16:37:00.318Z,11.27
2018-12-25T16:39:31.410Z,8.63
2018-12-25T16:42:02.800Z,7.67
2018-12-25T16:44:33.869Z,8.67
2018-12-25T16:47:04.829Z,7.27
2018-12-25T16:49:35.588Z,8.13
2018-12-25T16:52:06.622Z,9.77
2018-12-25T16:54:37.870Z,11.03
2018-12-25T16:57:11.049Z,12.80
2018-12-25T16:59:41.896Z,10.30
2018-12-25T17:02:12.934Z,10.03
2018-12-25T17:04:44.069Z,11.23
2018-12-25T17:07:14.961Z,10.63
2018-12-25T17:09:45.950Z,10.03
2018-12-25T17:12:16.909Z,10.60
2018-12-25T17:14:47.988Z,9.57
2018-12-25T17:17:18.987Z,10.30
2018-12-25T17:19:49.757Z,12.23
2018-12-25T17:22:20.799Z,9.47
2018-12-25T17:24:52.073Z,13.10
2018-12-25T17:27:23.353Z,10.57
2018-12-25T17:29:54.558Z,11.20
2018-12-25T17:32:25.519Z,10.27
2018-12-25T17:34:56.573Z,9.60
2018-12-25T17:37:29.506Z,12.20
2018-12-25T17:40:00.774Z,11.83
2018-12-25T17:42:31.594Z,12.20
2018-12-25T17:45:02.879Z,11.20
2018-12-25T17:47:34.408Z,11.50
2018-12-25T17:50:06.094Z,15.03
2018-12-25T17:52:37.105Z,12.33
2018-12-25T17:55:07.937Z,12.43
2018-12-25T17:57:39.043Z,10.33
2018-12-25T18:00:10.078Z,12.40
2018-12-25T18:02:41.874Z,36.77
2018-12-25T18:05:13.006Z,24.67
2018-12-25T18:07:44.061Z,19.40
2018-12-25T18:10:15.319Z,18.60
2018-12-25T18:12:46.955Z,13.63
2018-12-25T18:15:17.946Z,13.57
2018-12-25T18:17:49.434Z,12.23
2018-12-25T18:20:20.494Z,15.63
2018-12-25T18:22:51.777Z,14.63
2018-12-25T18:25:22.605Z,16.40
2018-12-25T18:27:53.433Z,14.47
2018-12-25T18:30:24.183Z,12.83
2018-12-25T18:32:57.233Z,16.03
2018-12-25T18:35:27.880Z,12.80
2018-12-25T18:37:59.123Z,16.03
2018-12-25T18:40:29.920Z,13.30
2018-12-25T18:43:01.080Z,9.67
2018-12-25T18:45:31.766Z,9.50
2018-12-25T18:48:03.158Z,9.47
2018-12-25T18:50:33.907Z,12.87
2018-12-25T18:53:04.746Z,12.87
2018-12-25T18:55:36.237Z,16.17
2018-12-25T18:58:07.362Z,12.83
2018-12-25T19:00:38.148Z,14.67
2018-12-25T19:03:09.237Z,15.87
2018-12-25T19:05:40.545Z,13.57
2018-12-25T19:08:11.246Z,12.83
2018-12-25T19:10:42.219Z,19.03
2018-12-25T19:13:13.544Z,17.23
2018-12-25T19:15:46.558Z,11.57
2018-12-25T19:18:17.351Z,11.37
2018-12-25T19:20:48.494Z,9.50
2018-12-25T19:23:19.544Z,7.73
2018-12-25T19:25:50.587Z,7.07
2018-12-25T19:28:21.862Z,7.70
2018-12-25T19:30:52.847Z,7.17
2018-12-25T19:33:24.191Z,6.97
2018-12-25T19:35:55.197Z,5.70
2018-12-25T19:38:26.309Z,7.57
2018-12-25T19:40:57.352Z,9.77
2018-12-25T19:43:28.473Z,8.53
2018-12-25T19:45:59.501Z,7.03
2018-12-25T19:48:30.488Z,6.60
2018-12-25T19:51:01.791Z,6.13
2018-12-25T19:53:32.836Z,6.37
2018-12-25T19:56:03.717Z,8.13
2018-12-25T19:58:35.262Z,7.07
2018-12-25T20:01:06.074Z,5.23
2018-12-25T20:03:51.522Z,4.60
2018-12-25T20:06:50.706Z,4.57
2018-12-25T20:10:10.756Z,5.60
2018-12-25T20:13:18.451Z,8.00
2018-12-25T20:16:36.660Z,7.27
2018-12-25T20:19:30.029Z,7.33
2018-12-25T20:22:40.738Z,7.87
2018-12-25T20:26:03.389Z,5.47
2018-12-25T20:29:02.436Z,6.63
2018-12-25T20:31:55.603Z,10.30
2018-12-25T20:35:10.497Z,6.70
2018-12-25T20:38:21.565Z,4.87
2018-12-25T20:41:17.425Z,6.20
2018-12-25T20:44:23.912Z,9.00
2018-12-25T20:47:37.949Z,8.83
2018-12-25T20:50:59.078Z,6.50
2018-12-25T20:54:03.086Z,6.87
2018-12-25T20:57:07.479Z,8.37
2018-12-25T21:00:17.426Z,6.87
2018-12-25T21:03:28.883Z,6.53
2018-12-25T21:06:59.054Z,5.80
2018-12-25T21:10:12.882Z,6.87
2018-12-25T21:13:37.358Z,7.20
2018-12-25T21:16:35.550Z,6.33
2018-12-25T21:19:30.870Z,8.17
2018-12-25T21:22:37.359Z,5.57
2018-12-25T21:25:44.180Z,6.33
2018-12-25T21:28:14.005Z,8.07
2018-12-25T21:30:45.178Z,5.73
2018-12-25T21:33:17.453Z,4.37
2018-12-25T21:35:48.806Z,4.27
2018-12-25T21:38:19.733Z,7.03
2018-12-25T21:41:22.172Z,5.57
2018-12-25T21:43:53.576Z,5.87
2018-12-25T21:46:26.343Z,5.63
2018-12-25T21:48:57.583Z,8.00
2018-12-25T21:54:29.621Z,5.67
2018-12-25T21:57:20.201Z,7.47
2018-12-25T22:00:12.629Z,9.03
2018-12-25T22:02:43.728Z,9.17
2018-12-25T22:05:14.962Z,7.27
2018-12-25T22:07:46.213Z,5.90
2018-12-25T22:10:17.790Z,7.57
2018-12-25T22:12:48.771Z,7.30
2018-12-25T22:15:19.559Z,6.63
2018-12-25T22:17:50.571Z,8.73
2018-12-25T22:20:27.633Z,8.47
2018-12-25T22:22:58.666Z,6.47
2018-12-25T22:25:29.871Z,6.63
2018-12-25T22:28:00.834Z,5.23
2018-12-25T22:30:31.939Z,4.73
2018-12-25T22:33:03.296Z,5.43
2018-12-25T22:35:34.540Z,6.90
2018-12-25T22:38:05.694Z,5.27
2018-12-25T22:40:36.760Z,5.37
2018-12-25T22:43:07.737Z,5.40
2018-12-25T22:45:39.055Z,5.57
2018-12-25T22:48:10.438Z,6.50
2018-12-25T22:50:41.498Z,9.20
2018-12-25T22:53:12.434Z,5.30
2018-12-25T22:55:43.423Z,8.87
2018-12-25T22:58:14.733Z,6.67
2018-12-25T23:00:45.993Z,5.37
2018-12-25T23:03:23.609Z,6.73
2018-12-25T23:05:54.358Z,6.57
2018-12-25T23:08:25.096Z,5.50
2018-12-25T23:10:56.333Z,5.57
2018-12-25T23:13:27.555Z,5.70
2018-12-25T23:15:58.302Z,6.30
2018-12-25T23:18:29.278Z,6.93
2018-12-25T23:21:00.358Z,5.03
2018-12-25T23:23:31.087Z,7.17
2018-12-25T23:26:02.217Z,8.33
2018-12-25T23:28:33.560Z,5.90
2018-12-25T23:31:04.874Z,6.97
2018-12-25T23:33:35.947Z,7.20
2018-12-25T23:36:06.681Z,7.07
2018-12-25T23:38:37.732Z,7.10
2018-12-25T23:41:08.478Z,8.87
2018-12-25T23:43:39.453Z,7.07
2018-12-25T23:46:10.445Z,6.73
2018-12-25T23:48:41.709Z,9.57
2018-12-25T23:51:12.578Z,9.17
2018-12-25T23:53:43.617Z,8.03
2018-12-25T23:56:14.867Z,10.07
2018-12-25T23:58:45.955Z,8.73
